Time;durP1;ratioP1;P1;durP2;ratioP2;P2;SDS_P1;SDS_P2;PMS_P1;PMS_P2;Temp;Humidity;BMP_temperature;BMP_pressure;BME280_temperature;BME280_humidity;BME280_pressure;Samples;Min_cycle;Max_cycle;Signal;HPM_P1;HPM_P2
2021/08/19 00:01:21;;;;;;;;;0.00;0.00;;;;;19.02;64.72;101411.34;5052160;28;45737;-85
2021/08/19 00:03:46;;;;;;;;;0.00;0.00;;;;;19.12;64.84;101429.66;5047447;28;46059;-85
2021/08/19 00:06:12;;;;;;;;;0.00;0.00;;;;;18.80;64.77;101386.16;5043241;28;45399;-85
2021/08/19 00:08:39;;;;;;;;;0.00;0.00;;;;;18.95;64.85;101427.25;5040190;28;45447;-85
2021/08/19 00:11:05;;;;;;;;;0.00;0.00;;;;;18.85;64.77;101423.91;5054458;28;45458;-85
2021/08/19 00:13:30;;;;;;;;;1.00;0.00;;;;;18.82;65.17;101417.78;5052507;28;47059;-84
2021/08/19 00:15:56;;;;;;;;;0.00;0.00;;;;;18.84;65.33;101422.13;5047134;28;45328;-85
2021/08/19 00:18:22;;;;;;;;;0.00;0.00;;;;;18.83;65.03;101420.41;5043048;28;45463;-85
2021/08/19 00:20:48;;;;;;;;;0.00;0.00;;;;;18.73;65.08;101408.25;5041335;28;45458;-85
2021/08/19 00:23:14;;;;;;;;;0.00;0.00;;;;;18.72;65.18;101410.00;5054462;28;46216;-85
2021/08/19 00:25:39;;;;;;;;;1.00;1.00;;;;;18.83;65.37;101417.75;5053494;28;45431;-85
2021/08/19 00:28:04;;;;;;;;;0.00;0.00;;;;;18.83;64.58;101406.34;5051424;28;45435;-85
2021/08/19 00:30:30;;;;;;;;;0.00;0.00;;;;;18.97;64.67;101403.50;5051267;28;45451;-84
2021/08/19 00:32:55;;;;;;;;;0.00;0.00;;;;;19.02;64.51;101406.06;5051427;28;46278;-85
2021/08/19 00:35:20;;;;;;;;;0.00;0.00;;;;;19.04;64.49;101401.59;5054730;28;45395;-85
2021/08/19 00:37:46;;;;;;;;;0.00;0.00;;;;;19.01;64.40;101391.97;5053554;28;45586;-85
2021/08/19 00:40:11;;;;;;;;;0.00;0.00;;;;;18.97;63.98;101375.34;5050904;28;46300;-85
2021/08/19 00:42:37;;;;;;;;;1.00;0.00;;;;;19.12;64.11;101395.34;5050815;28;46311;-85
2021/08/19 00:45:03;;;;;;;;;0.00;0.00;;;;;18.95;64.16;101360.41;5050613;28;45550;-84
2021/08/19 00:47:29;;;;;;;;;0.00;0.00;;;;;19.16;63.99;101392.66;5055384;28;45441;-84
2021/08/19 00:50:00;;;;;;;;;0.00;0.00;;;;;19.18;63.98;101394.41;5053942;28;45374;-83
2021/08/19 00:52:25;;;;;;;;;0.00;0.00;;;;;19.11;63.87;101374.25;5042744;28;45535;-85
2021/08/19 00:54:50;;;;;;;;;0.00;0.00;;;;;19.15;63.99;101372.44;5046123;28;45354;-85
2021/08/19 00:57:16;;;;;;;;;0.00;0.00;;;;;19.19;64.25;101390.84;5051167;28;46020;-86
2021/08/19 00:59:42;;;;;;;;;0.00;0.00;;;;;19.14;64.09;101387.41;5052213;28;45589;-86
2021/08/19 01:02:08;;;;;;;;;0.00;0.00;;;;;19.09;64.47;101383.97;5053409;28;46197;-85
2021/08/19 01:04:37;;;;;;;;;5.25;0.00;;;;;19.10;64.12;101394.50;5044129;28;45418;-86
2021/08/19 01:07:07;;;;;;;;;0.00;0.00;;;;;19.08;64.42;101387.53;5042265;28;45517;-85
2021/08/19 01:09:34;;;;;;;;;0.00;0.00;;;;;19.11;64.40;101390.09;5042512;28;45541;-86
2021/08/19 01:12:00;;;;;;;;;0.00;0.00;;;;;18.93;64.05;101373.63;5041935;28;45409;-86
2021/08/19 01:14:26;;;;;;;;;0.00;0.00;;;;;18.97;64.12;101387.66;5038860;28;45325;-87
2021/08/19 01:16:51;;;;;;;;;0.00;0.00;;;;;18.90;63.70;101367.56;5053182;28;45329;-87
2021/08/19 01:19:19;;;;;;;;;1.00;0.00;;;;;18.97;64.06;101385.03;5050809;28;45455;-86
2021/08/19 01:21:45;;;;;;;;;0.00;0.00;;;;;18.88;63.72;101375.50;5047162;28;46328;-86
2021/08/19 01:24:12;;;;;;;;;0.00;0.00;;;;;18.96;63.78;101378.88;5039529;28;47296;-86
2021/08/19 01:26:38;;;;;;;;;0.25;0.25;;;;;18.91;63.65;101377.19;5052637;28;45640;-86
2021/08/19 01:29:04;;;;;;;;;0.00;0.00;;;;;18.89;63.84;101368.47;5044723;28;45506;-86
2021/08/19 01:31:31;;;;;;;;;0.00;0.00;;;;;18.94;63.66;101366.59;5051838;28;46108;-86
2021/08/19 01:33:56;;;;;;;;;0.00;0.00;;;;;18.93;63.84;101375.44;5052707;28;45434;-87
2021/08/19 01:36:22;;;;;;;;;0.00;0.00;;;;;18.54;63.63;101303.06;5046794;28;45505;-83
2021/08/19 01:38:49;;;;;;;;;0.00;0.00;;;;;18.95;63.77;101366.59;5044231;28;45555;-84
2021/08/19 01:41:14;;;;;;;;;0.00;0.00;;;;;18.92;63.46;101364.00;5053320;28;47547;-85
2021/08/19 01:43:41;;;;;;;;;0.00;0.00;;;;;18.83;63.44;101346.56;5052552;28;45506;-84
2021/08/19 01:46:08;;;;;;;;;0.00;0.00;;;;;18.89;63.72;101355.28;5049737;28;45375;-86
2021/08/19 01:48:34;;;;;;;;;0.00;0.00;;;;;18.87;63.48;101342.13;5048303;28;45641;-86
2021/08/19 01:50:59;;;;;;;;;0.00;0.00;;;;;18.93;63.54;101349.91;5043331;28;46182;-84
2021/08/19 01:53:25;;;;;;;;;0.00;0.00;;;;;18.95;63.79;101358.66;5039116;28;45662;-86
2021/08/19 01:56:00;;;;;;;;;0.00;0.00;;;;;18.91;63.58;101370.16;5052435;28;45295;-83
2021/08/19 01:58:26;;;;;;;;;0.00;0.00;;;;;18.87;63.81;101363.22;5050671;28;45504;-86
2021/08/19 02:00:51;;;;;;;;;0.00;0.00;;;;;18.85;63.79;101367.63;5056775;28;46361;-86
2021/08/19 02:03:16;;;;;;;;;0.00;0.00;;;;;18.84;63.52;101363.25;5056584;28;45436;-86
2021/08/19 02:05:42;;;;;;;;;0.00;0.00;;;;;18.79;63.61;101365.97;5038319;28;56652;-84
2021/08/19 02:08:09;;;;;;;;;0.00;0.00;;;;;18.63;63.80;101354.78;5056009;28;45368;-85
2021/08/19 02:10:36;;;;;;;;;0.00;0.00;;;;;18.50;63.72;101351.47;5052291;28;46034;-86
2021/08/19 02:13:01;;;;;;;;;0.00;0.00;;;;;18.58;63.82;101353.97;5049446;28;45482;-86
2021/08/19 02:15:27;;;;;;;;;0.00;0.00;;;;;18.64;63.84;101350.38;5049752;28;45487;-86
2021/08/19 02:17:52;;;;;;;;;0.00;0.00;;;;;18.69;63.96;101356.47;5053755;28;45533;-86
2021/08/19 02:20:18;;;;;;;;;0.00;0.00;;;;;18.65;63.70;101352.97;5054306;28;45905;-86
2021/08/19 02:22:43;;;;;;;;;0.00;0.00;;;;;18.43;63.37;101339.25;5037782;28;45363;-87
2021/08/19 02:25:09;;;;;;;;;0.00;0.00;;;;;18.40;63.72;101347.22;5048455;28;45576;-86
2021/08/19 02:27:34;;;;;;;;;0.00;0.00;;;;;18.48;64.14;101364.69;5050381;28;45515;-86
2021/08/19 02:29:59;;;;;;;;;0.00;0.00;;;;;18.51;63.86;101358.47;5040981;28;45616;-85
2021/08/19 02:32:25;;;;;;;;;0.00;0.00;;;;;18.49;64.17;101350.59;5038448;28;46923;-85
2021/08/19 02:34:52;;;;;;;;;0.00;0.00;;;;;18.39;63.82;101322.63;5052371;28;45298;-85
2021/08/19 02:37:19;;;;;;;;;0.00;0.00;;;;;18.51;64.16;101347.06;5040317;28;45731;-84
2021/08/19 02:39:44;;;;;;;;;0.00;0.00;;;;;18.46;64.32;101350.63;5041138;28;45607;-84
2021/08/19 02:42:09;;;;;;;;;0.00;0.00;;;;;18.45;63.92;101335.72;5040978;28;45443;-84
2021/08/19 02:44:35;;;;;;;;;0.00;0.00;;;;;18.59;63.83;101340.75;5046609;28;45245;-84
2021/08/19 02:47:00;;;;;;;;;1.00;0.00;;;;;18.64;64.00;101338.06;5052507;28;45523;-83
2021/08/19 02:49:25;;;;;;;;;0.00;0.00;;;;;18.52;63.87;101309.25;5038519;28;45497;-85
2021/08/19 02:51:51;;;;;;;;;0.00;0.00;;;;;18.66;63.67;101336.28;5041023;28;45384;-85
2021/08/19 02:54:16;;;;;;;;;0.00;0.00;;;;;18.56;63.39;101326.78;5040804;28;48049;-85
2021/08/19 02:56:41;;;;;;;;;0.00;0.00;;;;;18.60;63.66;101339.91;5038855;28;45411;-85
2021/08/19 02:59:07;;;;;;;;;0.00;0.00;;;;;18.60;63.71;101334.63;5053089;28;46386;-85
2021/08/19 03:01:32;;;;;;;;;0.00;0.00;;;;;18.51;63.73;101313.66;5044678;28;45474;-85
2021/08/19 03:03:57;;;;;;;;;0.00;0.00;;;;;18.55;63.51;101311.84;5049191;28;45883;-85
2021/08/19 03:06:23;;;;;;;;;0.00;0.00;;;;;18.62;63.61;101324.03;5054375;28;45525;-84
2021/08/19 03:08:48;;;;;;;;;0.00;0.00;;;;;18.59;63.66;101329.38;5041988;28;55555;-84
2021/08/19 03:11:13;;;;;;;;;0.00;0.00;;;;;18.45;63.10;101308.47;5040112;28;62999;-83
2021/08/19 03:13:39;;;;;;;;;0.00;0.00;;;;;18.48;63.37;101317.22;5046260;28;45622;-83
2021/08/19 03:16:04;;;;;;;;;0.00;0.00;;;;;18.49;63.32;101316.31;5044248;28;45546;-85
2021/08/19 03:18:29;;;;;;;;;0.00;0.00;;;;;18.39;63.53;101304.19;5035271;28;47345;-83
2021/08/19 03:20:55;;;;;;;;;0.00;0.00;;;;;18.32;63.90;101307.81;5043169;28;45328;-85
2021/08/19 03:23:20;;;;;;;;;0.50;0.00;;;;;18.28;63.59;101298.22;5040456;28;49799;-84
2021/08/19 03:25:45;;;;;;;;;0.00;0.00;;;;;18.44;64.00;101330.47;5053129;28;45458;-85
2021/08/19 03:28:12;;;;;;;;;0.00;0.00;;;;;18.42;63.86;101325.22;5053307;28;45351;-84
2021/08/19 03:30:38;;;;;;;;;0.00;0.00;;;;;18.41;63.79;101322.59;5052215;28;45390;-85
2021/08/19 03:33:07;;;;;;;;;0.00;0.00;;;;;18.42;64.09;101317.31;5048268;28;45372;-84
2021/08/19 03:35:33;;;;;;;;;0.00;0.00;;;;;18.37;63.82;101305.94;5056583;28;45424;-84
2021/08/19 03:37:58;;;;;;;;;0.00;0.00;;;;;18.46;63.94;101318.13;5054580;28;46103;-80
2021/08/19 03:40:24;;;;;;;;;0.00;0.00;;;;;18.41;63.70;101307.66;5043361;28;45497;-84
2021/08/19 03:42:49;;;;;;;;;0.00;0.00;;;;;18.49;63.25;101312.81;5048562;28;46161;-85
2021/08/19 03:45:18;;;;;;;;;0.00;0.00;;;;;18.41;63.43;101317.34;5050371;28;45513;-84
2021/08/19 03:47:44;;;;;;;;;0.00;0.00;;;;;18.35;63.65;101310.41;5055089;28;46577;-85
2021/08/19 03:50:09;;;;;;;;;0.00;0.00;;;;;18.18;63.52;101282.53;5041248;28;45557;-85
2021/08/19 03:52:35;;;;;;;;;2.00;0.00;;;;;18.42;63.43;101319.06;5045199;28;45388;-84
2021/08/19 03:55:00;;;;;;;;;0.00;0.00;;;;;18.41;63.11;101312.91;5048293;28;45384;-86
2021/08/19 03:57:26;;;;;;;;;0.00;0.00;;;;;18.37;63.25;101313.84;5051979;28;45438;-85
2021/08/19 03:59:51;;;;;;;;;0.00;0.00;;;;;18.40;63.48;101310.34;5054767;28;45382;-85
2021/08/19 04:02:16;;;;;;;;;0.00;0.00;;;;;18.32;63.41;101308.66;5040506;28;45344;-85
2021/08/19 04:04:42;;;;;;;;;0.00;0.00;;;;;18.40;63.47;101313.81;5042904;28;45470;-85
2021/08/19 04:07:07;;;;;;;;;0.00;0.00;;;;;18.40;63.40;101299.78;5042034;28;68613;-86
2021/08/19 04:09:32;;;;;;;;;0.00;0.00;;;;;18.38;63.38;101297.16;5041861;28;55761;-85
2021/08/19 04:11:57;;;;;;;;;0.00;0.00;;;;;18.45;62.83;101304.09;5043013;28;45404;-86
2021/08/19 04:14:23;;;;;;;;;0.00;0.00;;;;;18.59;63.24;101316.19;5039976;28;45569;-84
2021/08/19 04:16:48;;;;;;;;;0.00;0.00;;;;;18.63;63.10;101320.50;5058054;28;57584;-84
2021/08/19 04:19:13;;;;;;;;;0.00;0.00;;;;;18.62;62.65;101308.19;5048623;28;52301;-86
2021/08/19 04:21:39;;;;;;;;;0.00;0.00;;;;;18.67;62.99;101314.28;5052121;28;52623;-85
2021/08/19 04:24:04;;;;;;;;;0.00;0.00;;;;;18.66;62.87;101311.69;5055781;28;45355;-85
2021/08/19 04:26:30;;;;;;;;;0.00;0.00;;;;;18.64;63.07;101309.06;5054748;28;46042;-81
2021/08/19 04:28:55;;;;;;;;;0.00;0.00;;;;;18.59;62.75;101303.00;5042796;28;45478;-85
2021/08/19 04:31:21;;;;;;;;;0.00;0.00;;;;;18.46;62.89;101295.28;5050734;28;45392;-85
2021/08/19 04:33:46;;;;;;;;;0.00;0.00;;;;;18.47;62.80;101294.38;5051609;28;45350;-86
2021/08/19 04:36:11;;;;;;;;;0.00;0.00;;;;;18.54;63.08;101305.72;5049686;28;45555;-85
2021/08/19 04:38:36;;;;;;;;;0.00;0.00;;;;;18.49;63.27;101303.16;5039362;28;45443;-85
2021/08/19 04:41:02;;;;;;;;;0.00;0.00;;;;;18.44;63.25;101299.69;5041830;28;45316;-85
2021/08/19 04:43:28;;;;;;;;;0.00;0.00;;;;;18.44;62.92;101285.66;5037524;28;45607;-85
2021/08/19 04:45:53;;;;;;;;;0.00;0.00;;;;;18.58;63.07;101306.50;5050437;28;45478;-86
2021/08/19 04:48:19;;;;;;;;;0.00;0.00;;;;;18.34;63.03;101287.53;5051285;28;45473;-86
2021/08/19 04:50:44;;;;;;;;;0.00;0.00;;;;;18.47;63.18;101310.19;5040472;28;45382;-86
2021/08/19 04:53:09;;;;;;;;;1.00;0.00;;;;;18.51;63.37;101313.66;5040083;28;45349;-85
2021/08/19 04:55:35;;;;;;;;;0.00;0.00;;;;;18.45;63.00;101317.28;5048435;28;45310;-86
2021/08/19 04:58:00;;;;;;;;;0.00;0.00;;;;;18.42;63.24;101319.94;5044909;28;45423;-85
2021/08/19 05:00:25;;;;;;;;;0.00;0.00;;;;;18.33;63.19;101320.97;5043742;28;54268;-85
2021/08/19 05:02:50;;;;;;;;;0.00;0.00;;;;;18.13;63.51;101286.97;5043442;28;45403;-86
2021/08/19 05:05:16;;;;;;;;;0.00;0.00;;;;;18.40;63.82;101327.00;5038428;28;58454;-85
2021/08/19 05:07:41;;;;;;;;;0.00;0.00;;;;;18.40;63.46;101320.88;5041884;28;49853;-86
2021/08/19 05:10:07;;;;;;;;;0.00;0.00;;;;;18.40;63.47;101328.78;5048122;28;45345;-86
2021/08/19 05:12:32;;;;;;;;;0.00;0.00;;;;;18.34;63.82;101327.97;5047061;28;45437;-86
2021/08/19 05:14:58;;;;;;;;;0.00;0.00;;;;;17.81;63.80;101241.75;5040018;28;46716;-85
2021/08/19 05:17:23;;;;;;;;;0.00;0.00;;;;;18.33;63.85;101328.88;5054406;28;45406;-85
2021/08/19 05:19:48;;;;;;;;;0.00;0.00;;;;;18.38;63.85;101331.44;5042508;28;45400;-85
2021/08/19 05:22:14;;;;;;;;;1.00;1.00;;;;;18.38;63.74;101336.72;5040579;28;45687;-86
2021/08/19 05:24:39;;;;;;;;;0.00;0.00;;;;;18.39;63.74;101335.81;5041659;28;45498;-86
2021/08/19 05:27:05;;;;;;;;;0.00;0.00;;;;;18.38;63.73;101334.06;5042728;28;45451;-86
2021/08/19 05:29:30;;;;;;;;;0.00;0.00;;;;;18.34;63.58;101329.72;5037614;28;45495;-85
2021/08/19 05:31:56;;;;;;;;;0.00;0.00;;;;;18.38;63.57;101330.56;5056395;28;45354;-86
2021/08/19 05:34:21;;;;;;;;;0.00;0.00;;;;;18.31;63.58;101322.72;5060551;28;45505;-85
2021/08/19 05:36:46;;;;;;;;;0.00;0.00;;;;;18.35;63.73;101331.47;5055048;28;45462;-86
2021/08/19 05:39:11;;;;;;;;;0.00;0.00;;;;;18.39;63.63;101333.16;5052610;28;45356;-85
2021/08/19 05:41:37;;;;;;;;;0.25;0.00;;;;;18.38;63.46;101326.16;5039021;28;45527;-86
2021/08/19 05:44:02;;;;;;;;;0.00;0.00;;;;;18.40;63.47;101337.53;5051360;28;54504;-85
2021/08/19 05:46:27;;;;;;;;;0.00;0.00;;;;;18.32;63.36;101327.09;5049105;28;45444;-86
2021/08/19 05:48:53;;;;;;;;;0.00;0.00;;;;;18.42;63.52;101338.41;5045574;28;54580;-86
2021/08/19 05:51:18;;;;;;;;;0.00;0.00;;;;;18.40;63.47;101329.63;5043087;28;45501;-86
2021/08/19 05:53:43;;;;;;;;;0.00;0.00;;;;;18.35;63.02;101326.22;5051853;28;60960;-86
2021/08/19 05:56:09;;;;;;;;;0.00;0.00;;;;;18.37;62.91;101334.94;5055155;28;45957;-85
2021/08/19 05:58:35;;;;;;;;;0.00;0.00;;;;;18.32;63.01;101329.72;5054532;28;45478;-86
2021/08/19 06:01:00;;;;;;;;;0.00;0.00;;;;;18.35;63.10;101334.13;5046214;28;45432;-84
2021/08/19 06:03:26;;;;;;;;;0.00;0.00;;;;;18.10;62.82;101293.16;5048772;28;45570;-84
2021/08/19 06:05:51;;;;;;;;;0.00;0.00;;;;;18.46;62.73;101345.38;5040991;28;45676;-83
2021/08/19 06:08:17;;;;;;;;;0.00;0.00;;;;;18.39;63.07;101329.66;5049868;28;45381;-82
2021/08/19 06:10:43;;;;;;;;;0.00;0.00;;;;;18.34;63.19;101332.34;5054555;28;45538;-86
2021/08/19 06:13:09;;;;;;;;;0.00;0.00;;;;;18.38;63.03;101347.25;5042551;28;46502;-83
2021/08/19 06:15:34;;;;;;;;;0.00;0.00;;;;;18.36;62.94;101330.56;5039390;28;45497;-83
2021/08/19 06:18:00;;;;;;;;;0.00;0.00;;;;;18.21;62.91;101314.09;5040398;28;45502;-83
2021/08/19 06:20:25;;;;;;;;;0.00;0.00;;;;;18.09;62.85;101301.06;5053895;28;45543;-83
2021/08/19 06:22:52;;;;;;;;;0.00;0.00;;;;;18.34;63.09;101337.63;5051825;28;45508;-81
2021/08/19 06:25:17;;;;;;;;;0.00;0.00;;;;;18.30;62.89;101336.81;5048388;28;45549;-83
2021/08/19 06:27:43;;;;;;;;;2.50;0.00;;;;;18.32;62.87;101339.44;5045999;28;45402;-83
2021/08/19 06:30:09;;;;;;;;;0.00;0.00;;;;;18.26;62.96;101321.06;5041435;28;45673;-82
2021/08/19 06:32:34;;;;;;;;;0.00;0.00;;;;;18.35;62.71;101334.97;5037162;28;46372;-81
2021/08/19 06:35:00;;;;;;;;;0.00;0.00;;;;;18.36;62.56;101338.47;5042287;28;45337;-81
2021/08/19 06:37:25;;;;;;;;;0.00;0.00;;;;;18.35;62.62;101342.03;5044459;28;45509;-81
2021/08/19 06:39:50;;;;;;;;;1.00;0.00;;;;;18.20;62.69;101322.03;5043859;28;46574;-81
2021/08/19 06:42:15;;;;;;;;;0.75;0.00;;;;;18.30;62.70;101333.28;5043930;28;46919;-81
2021/08/19 06:44:41;;;;;;;;;0.00;0.00;;;;;18.32;62.85;101336.78;5040878;28;45984;-81
2021/08/19 06:47:06;;;;;;;;;0.00;0.00;;;;;18.32;63.28;101340.28;5054991;28;45455;-83
2021/08/19 06:49:32;;;;;;;;;2.00;0.00;;;;;18.27;62.78;101333.34;5056180;28;45446;-82
2021/08/19 06:51:57;;;;;;;;;0.00;0.00;;;;;18.18;63.01;101311.50;5047732;28;46369;-82
2021/08/19 06:54:22;;;;;;;;;0.00;0.00;;;;;18.34;62.83;101327.06;5046487;28;45454;-82
2021/08/19 06:56:48;;;;;;;;;0.00;0.00;;;;;18.43;62.88;101337.50;5041241;28;45343;-84
2021/08/19 06:59:13;;;;;;;;;0.00;0.00;;;;;18.46;62.88;101336.56;5044522;28;45955;-80
2021/08/19 07:01:38;;;;;;;;;0.00;0.00;;;;;18.28;62.61;101317.50;5043775;28;46190;-81
2021/08/19 07:04:04;;;;;;;;;0.00;0.00;;;;;18.38;63.00;101339.34;5041862;28;50224;-80
2021/08/19 07:06:29;;;;;;;;;0.00;0.00;;;;;18.07;62.95;101298.44;5039417;28;45883;-79
2021/08/19 07:08:54;;;;;;;;;0.00;0.00;;;;;18.32;62.89;101344.69;5048401;28;45520;-80
2021/08/19 07:11:20;;;;;;;;;1.00;0.00;;;;;18.32;62.74;101344.69;5040391;28;45573;-80
2021/08/19 07:13:45;;;;;;;;;0.00;0.00;;;;;18.31;63.05;101327.13;5064686;28;45454;-78
2021/08/19 07:16:10;;;;;;;;;0.00;0.00;;;;;18.40;62.77;101337.53;5054381;28;45499;-79
2021/08/19 07:18:36;;;;;;;;;0.00;0.00;;;;;18.16;62.70;101294.84;5045198;28;45462;-79
2021/08/19 07:21:01;;;;;;;;;0.00;0.00;;;;;18.47;62.81;101336.56;5045598;28;46142;-78
2021/08/19 07:23:26;;;;;;;;;0.00;0.00;;;;;18.52;62.51;101335.59;5048193;28;54552;-79
2021/08/19 07:25:52;;;;;;;;;0.00;0.00;;;;;18.49;62.69;101321.59;5047342;28;45267;-79
2021/08/19 07:28:18;;;;;;;;;0.00;0.00;;;;;18.70;62.64;101335.34;5038525;28;45497;-78
2021/08/19 07:30:43;;;;;;;;;0.00;0.00;;;;;18.72;62.28;101317.72;5044187;28;46194;-77
2021/08/19 07:33:08;;;;;;;;;0.00;0.00;;;;;18.82;61.87;101323.72;5039677;28;45477;-78
2021/08/19 07:35:34;;;;;;;;;0.00;0.00;;;;;18.79;61.78;101305.31;5042730;28;45286;-81
2021/08/19 07:38:00;;;;;;;;;1.00;0.00;;;;;18.95;61.82;101332.28;5043213;28;45416;-80
2021/08/19 07:40:30;;;;;;;;;0.25;0.00;;;;;18.68;61.84;101299.34;5063009;27;45400;-79
2021/08/19 07:42:56;;;;;;;;;0.00;0.00;;;;;18.89;61.26;101315.72;5049559;28;45490;-79
2021/08/19 07:45:24;;;;;;;;;2.00;0.25;;;;;18.85;61.41;101326.31;5041195;28;45361;-79
2021/08/19 07:47:50;;;;;;;;;0.00;0.00;;;;;18.91;60.67;101321.81;5041002;28;45509;-79
2021/08/19 07:50:15;;;;;;;;;0.50;0.00;;;;;18.95;61.13;101321.75;5022679;28;45968;-79
2021/08/19 07:52:41;;;;;;;;;0.00;0.00;;;;;18.91;61.06;101316.53;5046713;28;45559;-82
2021/08/19 07:55:08;;;;;;;;;0.00;0.00;;;;;18.91;60.92;101312.13;5044919;28;45411;-78
2021/08/19 07:57:45;;;;;;;;;0.00;0.00;;;;;18.94;60.84;101340.22;5052131;28;45566;-78
2021/08/19 08:00:13;;;;;;;;;0.00;0.00;;;;;18.81;60.74;101327.22;5055322;28;48486;-78
2021/08/19 08:02:38;;;;;;;;;0.00;0.00;;;;;18.81;60.75;101340.41;5052680;28;45371;-78
2021/08/19 08:05:06;;;;;;;;;0.00;0.00;;;;;18.76;60.72;101339.63;5050279;28;45571;-79
2021/08/19 08:07:31;;;;;;;;;0.00;0.00;;;;;18.78;61.18;101332.59;5045324;28;45545;-79
2021/08/19 08:09:57;;;;;;;;;0.00;0.00;;;;;18.28;61.10;101240.22;5026943;28;47832;-78
2021/08/19 08:12:22;;;;;;;;;0.00;0.00;;;;;18.97;60.98;101345.44;5045853;28;45483;-78
2021/08/19 08:14:47;;;;;;;;;0.00;0.00;;;;;19.04;61.16;101331.25;5037636;28;45690;-77
2021/08/19 08:17:13;;;;;;;;;0.00;0.00;;;;;18.80;61.02;101278.03;5050115;28;45497;-81
2021/08/19 08:19:39;;;;;;;;;0.00;0.00;;;;;19.18;60.61;101344.25;5053943;27;45751;-81
2021/08/19 08:22:04;;;;;;;;;0.75;0.00;;;;;19.19;60.79;101347.75;5047124;28;48769;-79
2021/08/19 08:24:29;;;;;;;;;0.00;0.00;;;;;19.10;60.58;101341.75;5054270;28;45425;-79
2021/08/19 08:26:54;;;;;;;;;0.00;0.00;;;;;19.21;60.35;101353.88;5039776;28;45482;-78
2021/08/19 08:29:20;;;;;;;;;0.00;0.00;;;;;19.20;60.52;101354.78;5053108;28;45942;-80
2021/08/19 08:31:45;;;;;;;;;0.50;0.00;;;;;19.10;60.54;101330.31;5043400;28;45403;-78
2021/08/19 08:34:11;;;;;;;;;0.00;0.00;;;;;19.16;60.63;101345.16;5050540;28;45488;-80
2021/08/19 08:36:37;;;;;;;;;0.00;0.00;;;;;19.11;60.62;101337.31;5048058;28;45458;-81
2021/08/19 08:39:04;;;;;;;;;0.00;0.00;;;;;18.88;60.51;101301.63;5045364;28;46469;-78
2021/08/19 08:41:32;;;;;;;;;0.00;0.00;;;;;19.13;60.71;101359.28;5040771;28;45372;-80
2021/08/19 08:43:57;;;;;;;;;0.00;0.00;;;;;19.12;60.54;101358.41;5047872;28;45571;-77
2021/08/19 08:46:25;;;;;;;;;0.00;0.00;;;;;18.79;60.58;101313.22;5045876;28;45653;-81
2021/08/19 08:48:56;;;;;;;;;0.50;0.00;;;;;19.06;60.65;101361.13;5042996;28;46286;-78
2021/08/19 08:51:22;;;;;;;;;0.00;0.00;;;;;19.11;60.54;101371.63;5051916;28;45590;-79
2021/08/19 08:53:48;;;;;;;;;0.00;0.00;;;;;19.03;60.17;101362.94;5040976;28;45391;-79
2021/08/19 08:56:13;;;;;;;;;0.25;0.00;;;;;19.06;60.64;101352.34;5038096;28;45406;-82
2021/08/19 08:58:38;;;;;;;;;0.00;0.00;;;;;19.09;59.63;101361.13;5047922;28;63124;-80
2021/08/19 09:01:04;;;;;;;;;0.00;0.00;;;;;19.15;59.46;101361.91;5051882;28;54552;-79
2021/08/19 09:03:29;;;;;;;;;0.00;0.00;;;;;18.61;59.13;101290.66;5055971;28;45839;-80
2021/08/19 09:05:54;;;;;;;;;0.00;0.00;;;;;19.09;59.49;101370.78;5042665;28;45548;-78
2021/08/19 09:08:24;;;;;;;;;0.00;0.00;;;;;19.11;59.56;101366.34;5063033;28;45378;-77
2021/08/19 09:10:53;;;;;;;;;0.50;0.00;;;;;18.97;59.45;101354.25;5046929;28;45462;-75
2021/08/19 09:13:25;;;;;;;;;1.00;0.00;;;;;19.11;59.58;101368.97;5052525;28;45674;-76
2021/08/19 09:15:52;;;;;;;;;0.50;0.00;;;;;18.88;59.47;101341.22;5023770;28;45509;-77
2021/08/19 09:18:31;;;;;;;;;0.00;0.00;;;;;18.96;59.87;101367.47;5041409;28;47467;-77
2021/08/19 09:20:57;;;;;;;;;0.00;0.00;;;;;18.99;59.87;101373.53;5040181;28;45266;-77
2021/08/19 09:23:22;;;;;;;;;0.00;0.00;;;;;19.03;60.19;101368.22;5025337;28;45390;-79
2021/08/19 09:25:48;;;;;;;;;0.00;0.00;;;;;19.02;60.30;101374.41;5055842;28;45335;-79
2021/08/19 09:28:14;;;;;;;;;0.00;0.00;;;;;18.97;60.60;101370.06;5046206;28;46438;-75
2021/08/19 09:30:51;;;;;;;;;0.00;0.00;;;;;18.99;60.38;101376.19;5041105;28;45409;-78
2021/08/19 09:33:28;;;;;;;;;0.00;0.00;;;;;18.98;60.31;101369.16;5037461;28;45424;-78
2021/08/19 09:35:57;;;;;;;;;0.00;0.00;;;;;18.92;60.65;101363.09;5039543;28;45348;-77
2021/08/19 09:38:24;;;;;;;;;0.00;0.00;;;;;19.01;60.54;101367.41;5049804;28;46274;-79
2021/08/19 09:41:13;;;;;;;;;0.00;0.00;;;;;18.85;60.49;101341.25;5040389;28;45455;-78
2021/08/19 09:43:58;;;;;;;;;0.00;0.00;;;;;19.07;60.53;101370.81;5036493;28;45446;-81
2021/08/19 09:46:29;;;;;;;;;0.00;0.00;;;;;18.97;60.37;101372.72;5045677;28;45722;-79
2021/08/19 09:48:55;;;;;;;;;0.00;0.00;;;;;18.85;60.32;101343.88;5042122;28;46346;-78
2021/08/19 09:51:24;;;;;;;;;0.00;0.00;;;;;18.70;60.39;101326.53;5036121;28;45597;-84
2021/08/19 09:53:53;;;;;;;;;0.00;0.00;;;;;18.94;60.23;101366.59;5046161;28;45434;-78
2021/08/19 09:56:34;;;;;;;;;0.00;0.00;;;;;18.79;60.18;101333.44;5056568;27;45436;-80
2021/08/19 09:59:18;;;;;;;;;0.00;0.00;;;;;19.01;60.42;101359.47;5058299;28;45487;-80
2021/08/19 10:01:44;;;;;;;;;0.00;0.00;;;;;19.04;59.96;101359.41;5053635;28;45351;-80
2021/08/19 10:04:09;;;;;;;;;0.00;0.00;;;;;18.87;59.54;101334.19;5045879;28;45504;-77
2021/08/19 10:06:35;;;;;;;;;0.00;0.00;;;;;18.98;59.33;101358.63;5055388;28;45489;-77
2021/08/19 10:09:00;;;;;;;;;0.00;0.00;;;;;18.92;59.01;101344.66;5057075;28;62598;-77
2021/08/19 10:11:27;;;;;;;;;0.00;0.00;;;;;19.02;58.86;101356.78;5039987;28;45379;-77
2021/08/19 10:13:54;;;;;;;;;0.00;0.00;;;;;18.96;59.03;101346.38;5046285;28;45367;-78
2021/08/19 10:16:19;;;;;;;;;0.00;0.00;;;;;19.12;58.85;101354.91;5046994;28;45445;-79
2021/08/19 10:18:48;;;;;;;;;0.00;0.00;;;;;19.08;59.04;101346.16;5063643;28;45577;-78
2021/08/19 10:21:16;;;;;;;;;0.00;0.00;;;;;19.21;58.92;101348.59;5056715;28;45589;-78
2021/08/19 10:23:45;;;;;;;;;1.00;0.00;;;;;19.21;58.27;101352.09;5051417;28;45552;-78
2021/08/19 10:26:17;;;;;;;;;0.00;0.00;;;;;19.20;58.50;101353.00;5049732;28;45308;-77
2021/08/19 10:28:54;;;;;;;;;0.75;0.00;;;;;19.25;58.47;101355.56;5053103;28;46640;-77
2021/08/19 10:31:52;;;;;;;;;0.50;0.00;;;;;18.93;58.30;101289.22;5062717;28;45545;-79
2021/08/19 10:34:38;;;;;;;;;0.00;0.00;;;;;19.35;58.12;101354.50;4989662;28;45541;-77
2021/08/19 10:37:04;;;;;;;;;0.50;0.50;;;;;19.45;58.34;101349.91;4988279;28;45649;-78
2021/08/19 10:39:30;;;;;;;;;0.00;0.00;;;;;19.22;57.71;101329.22;4993416;28;46354;-78
2021/08/19 10:41:56;;;;;;;;;0.00;0.00;;;;;19.31;57.99;101357.22;4991783;28;45517;-79
2021/08/19 10:44:31;;;;;;;;;0.00;0.00;;;;;19.27;58.03;101355.53;4987702;28;45423;-77
2021/08/19 10:46:56;;;;;;;;;0.00;0.00;;;;;19.26;58.00;101351.16;4990407;28;45531;-76
2021/08/19 10:49:30;;;;;;;;;0.00;0.00;;;;;19.24;58.18;101349.41;4986226;28;47169;-78
2021/08/19 10:52:26;;;;;;;;;0.00;0.00;;;;;19.29;58.27;101344.03;4984593;28;45410;-79
2021/08/19 10:55:10;;;;;;;;;0.00;0.00;;;;;19.28;58.20;101344.06;4978991;28;45503;-77
2021/08/19 10:57:48;;;;;;;;;0.00;0.00;;;;;19.30;58.25;101347.56;4980410;28;45455;-78
2021/08/19 11:00:13;;;;;;;;;0.00;0.00;;;;;19.08;57.85;101314.50;4992484;28;45587;-78
2021/08/19 11:02:56;;;;;;;;;0.00;0.00;;;;;19.34;57.96;101355.41;4978732;28;45437;-79
2021/08/19 11:05:21;;;;;;;;;0.00;0.00;;;;;19.34;57.81;101357.16;4982590;28;45417;-78
2021/08/19 11:07:48;;;;;;;;;0.00;0.00;;;;;19.41;58.05;101356.13;4984423;28;45379;-78
2021/08/19 11:10:23;;;;;;;;;0.00;0.00;;;;;19.47;57.46;101348.13;5022079;28;47262;-81
2021/08/19 11:12:49;;;;;;;;;0.00;0.00;;;;;19.42;57.76;101349.09;5039634;28;45536;-78
2021/08/19 11:15:14;;;;;;;;;0.00;0.00;;;;;19.42;57.67;101352.59;5041072;28;45471;-79
2021/08/19 11:17:51;;;;;;;;;0.00;0.00;;;;;19.01;57.18;101281.19;5042712;28;51983;-81
2021/08/19 11:20:22;;;;;;;;;0.00;0.00;;;;;19.42;57.21;101333.25;5044900;28;45453;-80
2021/08/19 11:23:08;;;;;;;;;0.00;0.00;;;;;19.48;57.49;101341.06;5045478;28;45477;-80